This is the latest recevied weather packets stored in our database for station/object KE4LOJ. If no packets are shown the sender has not sent any weather packets the latest 10 day(s).
| Time | Temp. | Humidity | Pressure | Rain* | Wind** | Luminosity | Snow |
|---|---|---|---|---|---|---|---|
| 1777916987 | 25.56° C | 52% | 1017.4 hPa | 0 mm | - | 448 W/m² | - |
| 1777916684 | 26.11° C | 54% | 1017.4 hPa | 0 mm | - | 282 W/m² | - |
| 1777916382 | 26.11° C | 53% | 1017.4 hPa | 0 mm | - | 308 W/m² | - |
| 1777916078 | 25.56° C | 53% | 1017.5 hPa | 0 mm | - | 520 W/m² | - |
| 1777915776 | 26.11° C | 52% | 1017.5 hPa | 0 mm | - | 964 W/m² | - |
| 1777915471 | 26.11° C | 53% | 1017.6 hPa | 0 mm | - | 960 W/m² | - |
| 1777915168 | 26.11° C | 50% | 1017.5 hPa | 0 mm | - | 928 W/m² | - |
| 1777914865 | 25.56° C | 53% | 1017.5 hPa | 0 mm | - | 940 W/m² | - |
| 1777914562 | 25.56° C | 53% | 1017.8 hPa | 0 mm | - | 217 W/m² | - |
| 1777914258 | 26.11° C | 52% | 1017.7 hPa | 0 mm | - | 973 W/m² | - |
| 1777913955 | 25° C | 54% | 1017.8 hPa | 0 mm | - | 956 W/m² | - |
| 1777913652 | 25° C | 55% | 1017.8 hPa | 0 mm | - | 617 W/m² | - |
| 1777913348 | 25.56° C | 54% | 1017.8 hPa | 0 mm | - | 927 W/m² | - |
| 1777913045 | 25° C | 55% | 1017.9 hPa | 0 mm | - | 676 W/m² | - |
| 1777912741 | 25° C | 53% | 1018 hPa | 0 mm | - | 343 W/m² | - |
| 1777912437 | 25° C | 55% | 1017.9 hPa | 0 mm | - | 212 W/m² | - |
| 1777912133 | 25° C | 52% | 1018 hPa | 0 mm | - | 382 W/m² | - |
| 1777911829 | 24.44° C | 56% | 1018 hPa | 0 mm | - | 219 W/m² | - |
| 1777911526 | 25° C | 55% | 1018 hPa | 0 mm | - | 158 W/m² | - |
| 1777911223 | 26.11° C | 49% | 1018 hPa | 0 mm | - | 289 W/m² | - |
| 1777910920 | 26.11° C | 51% | 1017.9 hPa | 0 mm | - | 901 W/m² | - |
| 1777910617 | 25.56° C | 49% | 1018.1 hPa | 0 mm | - | 851 W/m² | - |
| 1777910314 | 24.44° C | 55% | 1018.1 hPa | 0 mm | - | 889 W/m² | - |
| 1777910011 | 25° C | 55% | 1018.2 hPa | 0 mm | - | 183 W/m² | - |
| 1777909708 | 25° C | 53% | 1018.5 hPa | 0 mm | - | 840 W/m² | - |
* Rain latest hour (hover to see other rain measurements)
** Current wind speed in m/s (hover to see current wind gust speed)